createdAt,value
2022-10-10T00:08:19.583Z,1021.49
2022-10-10T00:17:56.081Z,1021.46
2022-10-10T00:27:32.836Z,1021.28
2022-10-10T00:37:09.556Z,1021.14
2022-10-10T00:46:46.774Z,1021.03
2022-10-10T00:56:23.630Z,1021
2022-10-10T01:06:00.729Z,1020.9
2022-10-10T01:15:37.888Z,1020.79
2022-10-10T01:25:14.862Z,1020.66
2022-10-10T01:44:29.303Z,1020.48
2022-10-10T01:54:06.680Z,1020.53
2022-10-10T02:03:43.881Z,1020.42
2022-10-10T02:13:21.185Z,1020.19
2022-10-10T02:22:58.218Z,1020.08
2022-10-10T02:32:35.148Z,1020.03
2022-10-10T02:51:48.813Z,1019.84
2022-10-10T03:11:02.236Z,1019.7
2022-10-10T03:20:38.817Z,1019.64
2022-10-10T03:30:15.230Z,1019.66
2022-10-10T03:39:51.745Z,1019.5
2022-10-10T03:49:28.463Z,1019.44
2022-10-10T03:59:05.469Z,1019.35
2022-10-10T04:08:42.439Z,1019.25
2022-10-10T04:18:19.652Z,1019.29
2022-10-10T04:28:00.778Z,1019.13
2022-10-10T04:37:33.586Z,1019.1
2022-10-10T04:47:10.454Z,1019.07
2022-10-10T04:56:47.172Z,1019.03
2022-10-10T05:06:23.336Z,1019.03
2022-10-10T05:16:01.153Z,1019.11
2022-10-10T05:25:37.200Z,1019.1
2022-10-10T05:35:14.055Z,1019.15
2022-10-10T05:44:51.138Z,1019.18
2022-10-10T05:54:28.105Z,1019.08
2022-10-10T06:04:05.131Z,1019.09
2022-10-10T06:13:42.268Z,1019.1
2022-10-10T06:23:18.815Z,1019.19
2022-10-10T06:32:57.148Z,1019.09
2022-10-10T06:42:35.058Z,1019.17
2022-10-10T06:52:13.209Z,1019.06
2022-10-10T07:01:51.622Z,1018.97
2022-10-10T07:11:30.038Z,1019.01
2022-10-10T07:21:07.896Z,1018.95
2022-10-10T07:40:21.823Z,1019.04
2022-10-10T07:59:37.469Z,1018.69
2022-10-10T08:09:15.304Z,1018.66
2022-10-10T08:18:53.287Z,1018.61
2022-10-10T08:38:09.435Z,1018.45
2022-10-10T08:47:48.019Z,1018.4
2022-10-10T08:57:26.366Z,1018.29
2022-10-10T09:07:04.351Z,1018.22
2022-10-10T09:16:42.124Z,1018.1
2022-10-10T09:26:19.977Z,1017.94
2022-10-10T09:35:58.019Z,1017.91
2022-10-10T09:45:36.042Z,1017.78
2022-10-10T09:55:14.487Z,1017.79
2022-10-10T10:14:30.908Z,1017.53
2022-10-10T10:24:09.498Z,1017.54
2022-10-10T10:34:29.557Z,1017.23
2022-10-10T10:54:04.195Z,1017.13
2022-10-10T11:05:15.628Z,1017.02
2022-10-10T11:13:26.058Z,1017.05
2022-10-10T11:23:09.142Z,1016.84
2022-10-10T11:32:47.387Z,1016.81
2022-10-10T11:52:15.223Z,1016.68
2022-10-10T12:01:41.531Z,1016.45
2022-10-10T12:11:21.848Z,1016.4
2022-10-10T12:30:40.305Z,1016.18
2022-10-10T12:40:19.815Z,1016.24
2022-10-10T12:49:57.708Z,1016.22
2022-10-10T12:59:36.163Z,1016.09
2022-10-10T13:09:14.980Z,1015.87
2022-10-10T13:18:53.406Z,1015.84
2022-10-10T13:28:28.342Z,1015.85
2022-10-10T13:38:05.327Z,1015.88
2022-10-10T13:47:43.643Z,1015.84
2022-10-10T13:57:18.916Z,1015.81
2022-10-10T14:06:56.855Z,1015.92
2022-10-10T14:16:35.348Z,1015.95
2022-10-10T14:26:09.400Z,1015.93
2022-10-10T14:35:54.154Z,1015.89
2022-10-10T14:45:30.334Z,1015.99
2022-10-10T14:54:53.190Z,1016.12
2022-10-10T15:04:14.647Z,1016.12
2022-10-10T15:13:51.251Z,1016.34
2022-10-10T15:23:20.531Z,1016.5
2022-10-10T15:32:54.650Z,1016.51
2022-10-10T15:42:29.606Z,1016.66
2022-10-10T15:52:05.093Z,1016.77
2022-10-10T16:01:40.684Z,1016.89
2022-10-10T16:11:16.439Z,1017
2022-10-10T16:20:52.105Z,1017.13
2022-10-10T16:30:27.830Z,1017.34
2022-10-10T16:40:03.424Z,1017.44
2022-10-10T16:49:39.129Z,1017.61
2022-10-10T16:59:15.645Z,1017.82
2022-10-10T17:08:52.050Z,1018
2022-10-10T17:18:27.701Z,1018.15
2022-10-10T17:28:04.270Z,1018.19
2022-10-10T17:37:40.465Z,1018.28
2022-10-10T17:56:54.293Z,1018.41
2022-10-10T18:06:30.738Z,1018.51
2022-10-10T18:16:07.467Z,1018.71
2022-10-10T18:25:43.290Z,1018.8
2022-10-10T18:35:20.040Z,1018.92
2022-10-10T18:44:56.771Z,1019.14
2022-10-10T18:54:33.506Z,1019.17
2022-10-10T19:13:46.990Z,1019.29
2022-10-10T19:23:23.863Z,1019.44
2022-10-10T19:33:01.071Z,1019.43
2022-10-10T19:42:37.743Z,1019.58
2022-10-10T19:52:14.573Z,1019.65
2022-10-10T20:01:53.115Z,1019.79
2022-10-10T20:11:28.446Z,1020.01
2022-10-10T20:21:05.132Z,1020.06
2022-10-10T20:30:42.194Z,1020.18
2022-10-10T20:40:18.923Z,1020.26
2022-10-10T20:49:55.880Z,1020.36
2022-10-10T20:59:32.762Z,1020.54
2022-10-10T21:09:10.274Z,1020.52
2022-10-10T21:18:56.844Z,1020.63
2022-10-10T21:28:24.970Z,1020.68
2022-10-10T21:47:39.994Z,1020.84
2022-10-10T21:57:16.825Z,1021.12
2022-10-10T22:06:53.819Z,1021.16
2022-10-10T22:16:31.337Z,1021.33
2022-10-10T22:26:08.740Z,1021.46
2022-10-10T22:35:45.890Z,1021.38
2022-10-10T22:45:22.601Z,1021.52
2022-10-10T22:54:59.810Z,1021.73
2022-10-10T23:04:36.655Z,1021.91
2022-10-10T23:14:13.915Z,1022.01
2022-10-10T23:23:51.479Z,1022.16
2022-10-10T23:33:30.413Z,1022.21
2022-10-10T23:43:05.449Z,1022.44
2022-10-10T23:52:42.690Z,1022.57
